Time;durP1;ratioP1;P1;durP2;ratioP2;P2;SDS_P1;SDS_P2;PMS_P1;PMS_P2;Temp;Humidity;BMP_temperature;BMP_pressure;BME280_temperature;BME280_humidity;BME280_pressure;Samples;Min_cycle;Max_cycle;Signal;HPM_P1;HPM_P2
2022/01/21 00:01:24;;;;;;;12.70;1.45;;;;;;;1.56;91.74;103108.19;5078807;28;20020;-75
2022/01/21 00:03:50;;;;;;;18.42;1.60;;;;;;;1.56;92.67;103085.59;5077075;28;20023;-75
2022/01/21 00:06:16;;;;;;;6.20;1.27;;;;;;;1.54;92.13;103073.53;5082895;28;20475;-75
2022/01/21 00:08:44;;;;;;;4.88;1.52;;;;;;;1.70;92.43;103090.50;5073013;28;20039;-75
2022/01/21 00:11:11;;;;;;;12.75;1.80;;;;;;;1.75;93.15;103106.00;5076412;28;20059;-75
2022/01/21 00:13:37;;;;;;;6.70;1.00;;;;;;;1.78;93.12;103113.72;5080962;28;20026;-75
2022/01/21 00:16:23;;;;;;;30.35;1.63;;;;;;;1.83;92.56;103107.53;5077579;28;20111;-75
2022/01/21 00:18:58;;;;;;;2.85;1.33;;;;;;;1.80;94.79;103088.50;5075288;28;20033;-75
2022/01/21 00:32:22;;;;;;;2.60;0.55;;;;;;;1.97;98.83;103101.97;5082397;28;20058;-75
2022/01/21 00:34:48;;;;;;;6.80;1.42;;;;;;;1.81;99.38;103083.28;5074911;28;20115;-75
2022/01/21 00:37:13;;;;;;;15.00;1.00;;;;;;;1.96;99.38;103108.09;5059475;28;20391;-75
2022/01/21 00:39:39;;;;;;;4.57;0.98;;;;;;;1.94;99.83;103104.66;5056535;28;20024;-76
2022/01/21 00:42:29;;;;;;;3.28;1.35;;;;;;;1.84;99.85;103098.81;5085176;28;20028;-76
2022/01/21 00:45:00;;;;;;;4.13;1.10;;;;;;;1.86;99.20;103114.41;5078015;28;20040;-76
2022/01/21 00:47:29;;;;;;;4.93;1.10;;;;;;;1.80;99.92;103098.94;5081162;28;20236;-76
2022/01/21 00:49:55;;;;;;;1.23;0.63;;;;;;;1.92;100.00;103108.19;5079189;28;20020;-77
2022/01/21 00:52:21;;;;;;;6.30;1.58;;;;;;;1.77;99.79;103080.78;5073646;28;20041;-76
2022/01/21 00:54:47;;;;;;;7.05;1.70;;;;;;;1.89;100.00;103109.09;5079039;28;20024;-76
2022/01/21 00:57:12;;;;;;;10.00;1.25;;;;;;;1.88;100.00;103115.22;5078532;28;20024;-75
2022/01/21 00:59:38;;;;;;;4.10;1.17;;;;;;;1.85;100.00;103130.91;5074607;28;20076;-75
2022/01/21 01:02:04;;;;;;;7.75;1.00;;;;;;;1.89;99.80;103137.75;5082754;28;20024;-75
2022/01/21 01:04:30;;;;;;;7.45;1.25;;;;;;;1.84;100.00;103129.22;5077529;28;20028;-75
2022/01/21 01:06:55;;;;;;;11.65;0.95;;;;;;;1.86;100.00;103130.03;5072449;28;20028;-76
2022/01/21 01:09:21;;;;;;;8.20;1.25;;;;;;;1.85;100.00;103125.69;5073834;28;20053;-76
2022/01/21 01:19:58;;;;;;;0.90;0.55;;;;;;;1.76;100.00;103120.72;5075799;28;20051;-76
2022/01/21 01:27:52;;;;;;;4.00;0.90;;;;;;;1.60;100.00;103121.09;5071426;28;20047;-76
2022/01/21 01:30:20;;;;;;;4.70;0.80;;;;;;;1.56;100.00;103118.59;5080224;28;20028;-76
2022/01/21 01:32:48;;;;;;;3.25;0.77;;;;;;;1.53;100.00;103113.47;5080426;28;20021;-76
2022/01/21 01:35:16;;;;;;;2.50;0.77;;;;;;;1.48;100.00;103120.50;5085305;28;20047;-76
2022/01/21 01:38:41;;;;;;;2.63;0.77;;;;;;;1.44;100.00;103131.00;5088404;28;20038;-76
2022/01/21 01:40:55;;;;;;;2.70;1.27;;;;;;;1.30;100.00;103108.78;5063235;28;20044;-77
2022/01/21 01:50:54;;;;;;;3.08;0.38;;;;;;;1.52;100.00;103136.00;5074822;28;20028;-75
2022/01/21 01:53:23;;;;;;;6.85;1.15;;;;;;;1.55;100.00;103135.97;5091232;28;20040;-75
2022/01/21 01:55:50;;;;;;;5.75;1.13;;;;;;;1.57;100.00;103131.59;5108333;28;20032;-75
2022/01/21 01:58:15;;;;;;;0.98;0.93;;;;;;;1.56;100.00;103122.03;5102763;28;20031;-75
2022/01/21 02:00:42;;;;;;;6.95;0.75;;;;;;;1.51;100.00;103115.25;5107281;28;20035;-75
2022/01/21 02:03:10;;;;;;;2.28;0.93;;;;;;;1.56;100.00;103113.38;5100034;28;20061;-75
2022/01/21 02:05:36;;;;;;;1.40;0.32;;;;;;;1.55;100.00;103099.53;5107262;28;20020;-75
2022/01/21 02:08:02;;;;;;;5.25;1.90;;;;;;;1.54;100.00;103105.59;5098830;28;20208;-75
2022/01/21 02:10:28;;;;;;;1.02;0.45;;;;;;;1.49;100.00;103107.47;5106957;28;20036;-76
2022/01/21 02:13:04;;;;;;;0.82;0.43;;;;;;;1.46;100.00;103098.88;5086812;28;20047;-75
2022/01/21 02:15:31;;;;;;;1.80;0.50;;;;;;;1.29;100.00;103084.53;5097947;28;20059;-76
2022/01/21 02:23:27;;;;;;;6.97;0.73;;;;;;;1.30;100.00;103085.38;5103245;28;20039;-76
2022/01/21 02:25:52;;;;;;;2.22;0.70;;;;;;;1.21;100.00;103076.03;5081780;28;20032;-76
2022/01/21 02:28:19;;;;;;;4.90;0.77;;;;;;;1.30;100.00;103094.03;5085432;28;20115;-76
2022/01/21 02:31:02;;;;;;;1.85;0.60;;;;;;;1.31;100.00;103107.91;5076425;28;20032;-76
2022/01/21 02:33:28;;;;;;;2.97;0.52;;;;;;;1.29;100.00;103094.94;5087974;28;20380;-76
2022/01/21 02:35:53;;;;;;;9.20;0.80;;;;;;;1.34;100.00;103087.00;5101256;28;20024;-76
2022/01/21 02:38:19;;;;;;;6.28;1.17;;;;;;;1.48;100.00;103092.75;5067850;28;20498;-76
2022/01/21 02:40:45;;;;;;;4.07;0.80;;;;;;;1.53;100.00;103098.72;5107029;28;20042;-76
2022/01/21 02:43:11;;;;;;;6.78;0.85;;;;;;;1.54;100.00;103095.19;5081197;28;20081;-76
2022/01/21 02:45:39;;;;;;;3.03;0.88;;;;;;;1.53;100.00;103098.72;5069898;28;20032;-76
2022/01/21 02:48:07;;;;;;;4.47;1.05;;;;;;;1.56;100.00;103096.00;5083099;28;20089;-76
2022/01/21 02:50:33;;;;;;;3.33;0.57;;;;;;;1.48;100.00;103095.38;5091850;28;20472;-76
2022/01/21 02:55:42;;;;;;;3.65;1.25;;;;;;;1.53;100.00;103132.53;5084015;28;20074;-76
2022/01/21 02:58:07;;;;;;;0.45;0.35;;;;;;;1.54;100.00;103136.00;5087099;28;20059;-75
2022/01/21 03:00:33;;;;;;;1.75;0.43;;;;;;;1.56;100.00;103139.41;5110924;28;20081;-75
2022/01/21 03:03:02;;;;;;;4.97;0.60;;;;;;;1.61;100.00;103142.75;5108404;28;20065;-75
2022/01/21 03:05:28;;;;;;;4.97;0.40;;;;;;;1.61;100.00;103143.63;5092206;28;20031;-75
2022/01/21 03:07:53;;;;;;;5.90;0.77;;;;;;;1.60;100.00;103134.09;5080482;28;20076;-75
2022/01/21 03:10:19;;;;;;;2.72;0.68;;;;;;;1.51;100.00;103129.13;5109867;28;20100;-75
2022/01/21 03:12:44;;;;;;;3.28;0.52;;;;;;;1.52;100.00;103123.00;5066344;28;20361;-75
2022/01/21 03:15:09;;;;;;;4.20;0.82;;;;;;;1.48;100.00;103115.31;5091504;28;20036;-75
2022/01/21 03:17:35;;;;;;;5.30;0.80;;;;;;;1.49;100.00;103117.88;5080186;28;20046;-75
2022/01/21 03:20:02;;;;;;;4.10;1.30;;;;;;;1.61;100.00;103130.63;5089970;28;20402;-75
2022/01/21 03:22:27;;;;;;;14.95;1.73;;;;;;;1.66;100.00;103127.91;5087653;28;20508;-75
2022/01/21 03:24:53;;;;;;;3.28;0.93;;;;;;;1.66;100.00;103124.47;5085732;28;20031;-75
2022/01/21 03:27:19;;;;;;;5.88;0.93;;;;;;;1.53;100.00;103101.31;5108511;28;20027;-75
2022/01/21 03:29:44;;;;;;;6.85;0.60;;;;;;;1.52;100.00;103098.72;5072586;28;20028;-75
2022/01/21 03:32:10;;;;;;;12.07;0.85;;;;;;;1.55;100.00;103112.53;5077603;28;20031;-75
2022/01/21 03:34:35;;;;;;;4.10;0.75;;;;;;;1.45;100.00;103100.63;5073334;28;20092;-75
2022/01/21 03:37:01;;;;;;;3.13;0.75;;;;;;;1.39;100.00;103092.94;5060773;28;20027;-75
2022/01/21 03:39:27;;;;;;;10.32;0.88;;;;;;;1.42;100.00;103098.09;5109186;28;20023;-76
2022/01/21 03:41:52;;;;;;;1.80;0.60;;;;;;;1.53;100.00;103108.28;5082466;28;20026;-76
2022/01/21 03:44:17;;;;;;;5.40;1.23;;;;;;;1.56;100.00;103124.66;5078056;28;20059;-76
2022/01/21 03:46:43;;;;;;;6.15;1.27;;;;;;;1.60;100.00;103146.25;5078035;28;20398;-76
2022/01/21 03:49:09;;;;;;;3.22;0.40;;;;;;;1.56;100.00;103142.03;5099083;28;20039;-75
2022/01/21 03:51:35;;;;;;;5.18;0.75;;;;;;;1.49;100.00;103128.28;5085356;28;20104;-75
2022/01/21 03:54:00;;;;;;;2.22;1.13;;;;;;;1.58;100.00;103137.63;5083195;28;20027;-75
2022/01/21 03:56:26;;;;;;;4.68;0.90;;;;;;;1.47;100.00;103103.19;5101062;28;20024;-75
2022/01/21 03:58:51;;;;;;;2.33;0.60;;;;;;;1.58;100.00;103111.59;5097958;28;20043;-75
2022/01/21 04:01:18;;;;;;;3.58;0.50;;;;;;;1.61;100.00;103112.41;5106808;28;20020;-75
2022/01/21 04:03:43;;;;;;;2.53;0.75;;;;;;;1.55;100.00;103101.28;5087248;28;20027;-75
2022/01/21 04:08:53;;;;;;;0.63;0.40;;;;;;;1.33;100.00;103096.56;5087105;28;20059;-76
2022/01/21 04:11:18;;;;;;;0.73;0.73;;;;;;;1.37;100.00;103107.75;5061597;28;20111;-76
2022/01/21 04:13:45;;;;;;;2.47;1.33;;;;;;;1.32;100.00;103114.81;5064215;28;20024;-76
2022/01/21 04:16:10;;;;;;;6.30;0.60;;;;;;;1.25;100.00;103113.25;5101775;28;20027;-76
2022/01/21 04:18:36;;;;;;;2.28;0.77;;;;;;;0.99;100.00;103084.28;5097110;28;20098;-76
2022/01/21 04:21:01;;;;;;;1.00;0.57;;;;;;;1.11;100.00;103109.19;5045293;28;20016;-76
2022/01/21 04:23:27;;;;;;;8.32;0.85;;;;;;;1.06;100.00;103113.63;5101414;28;20052;-76
2022/01/21 04:25:53;;;;;;;0.95;0.45;;;;;;;1.06;100.00;103111.03;5065984;28;20035;-76
2022/01/21 04:28:18;;;;;;;2.35;0.85;;;;;;;0.99;100.00;103112.06;5103136;28;20061;-76
2022/01/21 04:30:44;;;;;;;2.65;0.50;;;;;;;0.90;100.00;103102.69;5102845;28;20119;-76
2022/01/21 04:33:10;;;;;;;2.83;0.80;;;;;;;0.93;100.00;103106.97;5086684;28;20023;-76
2022/01/21 04:35:36;;;;;;;1.58;0.63;;;;;;;0.91;100.00;103108.75;5103508;28;20391;-76
2022/01/21 04:38:05;;;;;;;1.17;0.30;;;;;;;0.85;100.00;103108.88;5079868;28;20602;-76
2022/01/21 04:40:35;;;;;;;3.95;0.82;;;;;;;0.90;100.00;103118.28;5083557;28;20166;-76
2022/01/21 04:48:30;;;;;;;5.18;1.13;;;;;;;1.00;100.00;103119.84;5078724;28;20093;-76
2022/01/21 04:50:59;;;;;;;11.40;0.65;;;;;;;1.03;100.00;103118.91;5097109;28;20047;-76
2022/01/21 04:53:27;;;;;;;2.55;0.60;;;;;;;0.97;100.00;103114.69;5104060;28;20134;-76
2022/01/21 04:55:53;;;;;;;1.85;0.65;;;;;;;1.12;100.00;103128.25;5094536;28;20024;-76
2022/01/21 04:58:19;;;;;;;0.40;0.40;;;;;;;1.15;100.00;103120.38;5075142;28;20023;-76
2022/01/21 05:00:45;;;;;;;3.22;0.63;;;;;;;1.11;100.00;103119.59;5080258;28;20058;-76
2022/01/21 05:03:12;;;;;;;3.97;1.20;;;;;;;1.12;100.00;103123.91;5099017;28;20028;-76
2022/01/21 05:05:38;;;;;;;0.82;0.30;;;;;;;1.11;100.00;103127.41;5080428;28;20102;-76
2022/01/21 05:08:07;;;;;;;5.38;0.93;;;;;;;1.07;100.00;103123.16;5074886;28;20024;-76
2022/01/21 05:10:34;;;;;;;9.13;1.40;;;;;;;1.02;100.00;103123.25;5101503;28;20474;-76
2022/01/21 05:13:00;;;;;;;3.63;0.80;;;;;;;0.93;100.00;103109.56;5101039;27;20020;-76
2022/01/21 05:15:57;;;;;;;9.98;1.55;;;;;;;0.97;100.00;103122.47;5069845;28;20372;-76
2022/01/21 05:18:13;;;;;;;3.50;0.90;;;;;;;0.94;100.00;103122.56;5101303;28;20028;-76
2022/01/21 05:20:38;;;;;;;11.30;1.42;;;;;;;0.93;100.00;103119.97;5104268;28;20028;-76
2022/01/21 05:23:04;;;;;;;3.63;1.30;;;;;;;0.96;100.00;103122.53;5081307;28;20020;-76
2022/01/21 05:25:29;;;;;;;3.55;0.90;;;;;;;1.00;100.00;103113.75;5101943;28;20028;-76
2022/01/21 05:27:58;;;;;;;0.43;0.20;;;;;;;1.00;100.00;103122.44;5080997;28;20627;-76
2022/01/21 05:30:23;;;;;;;1.77;0.35;;;;;;;0.96;100.00;103122.53;5079924;28;20066;-76
2022/01/21 05:32:49;;;;;;;0.93;0.52;;;;;;;0.97;100.00;103125.06;5064379;28;20028;-76
2022/01/21 05:35:14;;;;;;;2.13;0.55;;;;;;;0.95;100.00;103123.41;5090215;28;20087;-76
2022/01/21 05:37:40;;;;;;;3.28;0.60;;;;;;;1.00;100.00;103124.16;5080676;28;20024;-76
2022/01/21 05:40:09;;;;;;;3.38;0.73;;;;;;;1.02;100.00;103124.97;5088305;28;20068;-76
2022/01/21 05:42:36;;;;;;;3.72;0.47;;;;;;;1.05;100.00;103116.28;5102825;27;20039;-76
2022/01/21 05:47:29;;;;;;;8.90;1.10;;;;;;;1.02;100.00;103101.56;5104113;28;20039;-75
2022/01/21 05:49:55;;;;;;;1.85;0.77;;;;;;;1.10;100.00;103115.28;5084785;28;20024;-75
2022/01/21 05:52:27;;;;;;;4.15;0.60;;;;;;;1.05;100.00;103106.72;5082108;28;20039;-75
2022/01/21 05:54:53;;;;;;;3.42;0.60;;;;;;;1.19;100.00;103124.63;5082762;28;20051;-75
2022/01/21 05:57:19;;;;;;;5.10;0.68;;;;;;;1.13;100.00;103112.63;5077574;28;20475;-75
2022/01/21 05:59:45;;;;;;;9.25;1.45;;;;;;;1.11;100.00;103108.31;5083741;28;20035;-75
2022/01/21 06:02:12;;;;;;;8.00;0.65;;;;;;;1.17;100.00;103122.03;5067895;28;20494;-75
2022/01/21 06:04:40;;;;;;;3.25;1.00;;;;;;;1.04;100.00;103099.78;5102926;28;20016;-75
2022/01/21 06:07:06;;;;;;;3.40;0.40;;;;;;;1.13;100.00;103123.03;5100871;28;20040;-75
2022/01/21 06:09:32;;;;;;;1.98;0.80;;;;;;;1.12;100.00;103123.91;5080087;28;20114;-75
2022/01/21 06:11:58;;;;;;;5.35;0.70;;;;;;;1.01;100.00;103118.94;5099808;27;20115;-75
2022/01/21 06:14:26;;;;;;;3.13;0.40;;;;;;;1.13;100.00;103138.63;5077886;28;20024;-75
2022/01/21 06:16:52;;;;;;;4.05;0.63;;;;;;;1.08;100.00;103132.66;5083750;28;20108;-76
2022/01/21 06:19:18;;;;;;;2.30;0.88;;;;;;;1.16;100.00;103138.56;5063289;28;20089;-75
2022/01/21 06:21:44;;;;;;;7.22;1.05;;;;;;;1.04;100.00;103133.59;5077729;28;20020;-75
2022/01/21 06:24:09;;;;;;;6.15;1.95;;;;;;;1.08;100.00;103135.25;5055390;28;20028;-75
2022/01/21 06:26:36;;;;;;;7.88;1.10;;;;;;;1.11;100.00;103127.41;5077537;28;20036;-75
2022/01/21 06:29:02;;;;;;;2.95;1.30;;;;;;;1.30;100.00;103147.81;5083194;28;20027;-76
2022/01/21 06:31:28;;;;;;;5.13;1.13;;;;;;;1.40;100.00;103133.72;5101839;28;20032;-75
2022/01/21 06:33:54;;;;;;;10.02;1.85;;;;;;;1.44;100.00;103128.41;5064975;28;20080;-76
2022/01/21 06:36:20;;;;;;;6.20;1.05;;;;;;;1.39;100.00;103093.84;5094489;28;20036;-75
2022/01/21 06:38:45;;;;;;;2.03;0.57;;;;;;;1.48;100.00;103099.69;5093400;28;20408;-76
2022/01/21 06:41:11;;;;;;;3.65;0.52;;;;;;;1.54;100.00;103116.00;5092346;28;20043;-76
2022/01/21 06:43:36;;;;;;;4.00;0.95;;;;;;;1.43;100.00;103102.41;5079117;28;20114;-76
2022/01/21 06:46:01;;;;;;;2.13;0.43;;;;;;;1.32;100.00;103094.00;5089527;28;20043;-77
2022/01/21 06:48:28;;;;;;;8.18;1.38;;;;;;;1.44;100.00;103124.94;5059633;28;20051;-76
2022/01/21 06:50:53;;;;;;;15.18;1.17;;;;;;;1.41;100.00;103125.00;5078329;28;20482;-76
2022/01/21 06:53:18;;;;;;;3.92;0.90;;;;;;;1.42;100.00;103134.53;5076720;28;20071;-76
2022/01/21 06:55:44;;;;;;;4.05;1.27;;;;;;;1.41;100.00;103136.25;5096431;28;20031;-76
2022/01/21 06:58:09;;;;;;;7.95;0.88;;;;;;;1.25;100.00;103115.84;5097359;28;20080;-76
2022/01/21 07:00:35;;;;;;;8.50;1.20;;;;;;;1.44;100.00;103143.16;5057292;28;20043;-76
2022/01/21 07:03:00;;;;;;;4.50;1.10;;;;;;;1.49;100.00;103138.69;5079258;28;20402;-76
2022/01/21 07:05:29;;;;;;;6.32;1.08;;;;;;;1.50;100.00;103124.78;5077650;28;20059;-76
2022/01/21 07:07:56;;;;;;;8.45;1.13;;;;;;;1.61;100.00;103154.06;5082994;28;20169;-75
2022/01/21 07:10:22;;;;;;;3.17;1.45;;;;;;;1.62;100.00;103142.72;5092148;28;20024;-76
2022/01/21 07:12:48;;;;;;;9.57;1.48;;;;;;;1.69;100.00;103146.03;5063037;28;20024;-76
2022/01/21 07:15:16;;;;;;;7.20;1.42;;;;;;;1.62;100.00;103136.69;5098027;28;20135;-76
2022/01/21 07:17:42;;;;;;;3.47;0.73;;;;;;;1.62;100.00;103129.72;5083014;28;20456;-76
2022/01/21 07:20:09;;;;;;;6.28;1.00;;;;;;;1.75;100.00;103145.06;5098187;28;20038;-75
2022/01/21 07:22:35;;;;;;;4.95;0.98;;;;;;;1.71;100.00;103135.59;5080942;28;20045;-76
2022/01/21 07:25:00;;;;;;;7.20;0.70;;;;;;;1.78;100.00;103139.75;5075753;28;20036;-76
2022/01/21 07:27:26;;;;;;;4.90;0.98;;;;;;;1.71;100.00;103131.25;5094040;28;20019;-76
2022/01/21 07:29:51;;;;;;;4.30;0.80;;;;;;;1.62;100.00;103129.72;5090957;28;20036;-76
2022/01/21 07:32:17;;;;;;;14.02;1.17;;;;;;;1.52;100.00;103110.00;5072089;28;20036;-76
2022/01/21 07:34:42;;;;;;;2.45;0.85;;;;;;;1.64;100.00;103133.13;5080395;28;20131;-76
2022/01/21 07:37:07;;;;;;;6.05;1.10;;;;;;;1.55;100.00;103128.16;5066515;28;20061;-75
2022/01/21 07:39:33;;;;;;;3.15;0.90;;;;;;;1.58;100.00;103143.69;5082926;28;20031;-75
2022/01/21 07:41:58;;;;;;;5.45;0.98;;;;;;;1.60;100.00;103139.31;5066410;28;20025;-75
2022/01/21 07:44:24;;;;;;;2.72;0.73;;;;;;;1.60;100.00;103141.06;5100095;28;20024;-75
2022/01/21 07:46:50;;;;;;;6.25;0.70;;;;;;;1.62;100.00;103140.13;5083340;28;20472;-75
2022/01/21 07:49:16;;;;;;;10.65;1.63;;;;;;;1.60;100.00;103141.91;5082313;28;20024;-75
2022/01/21 07:51:43;;;;;;;6.78;0.95;;;;;;;1.64;100.00;103142.72;5100813;28;20076;-75
2022/01/21 07:54:09;;;;;;;7.15;1.48;;;;;;;1.47;100.00;103114.47;5103186;28;20058;-75
2022/01/21 07:56:34;;;;;;;8.60;0.93;;;;;;;1.49;100.00;103135.25;5069729;28;20070;-75
2022/01/21 07:59:03;;;;;;;5.78;0.95;;;;;;;1.58;100.00;103159.31;5084119;28;20027;-77
2022/01/21 08:01:29;;;;;;;3.33;1.23;;;;;;;1.49;100.00;103146.50;5080465;28;20103;-76
2022/01/21 08:03:58;;;;;;;6.93;2.45;;;;;;;1.42;100.00;103131.94;5082129;28;20497;-75
2022/01/21 08:06:24;;;;;;;6.68;1.58;;;;;;;1.62;100.00;103173.97;5098995;28;20031;-76
2022/01/21 08:08:49;;;;;;;3.35;1.13;;;;;;;1.56;100.00;103136.81;5114900;28;20024;-76
2022/01/21 08:11:15;;;;;;;7.07;1.05;;;;;;;1.47;100.00;103135.28;5091674;28;20104;-76
2022/01/21 08:13:40;;;;;;;10.95;1.70;;;;;;;1.72;100.00;103176.34;5097390;28;20024;-77
2022/01/21 08:16:06;;;;;;;5.93;1.35;;;;;;;1.59;100.00;103157.56;5074853;28;20039;-76
2022/01/21 08:18:31;;;;;;;3.55;1.10;;;;;;;1.63;100.00;103165.28;5054038;28;20470;-76
2022/01/21 08:20:57;;;;;;;9.55;2.08;;;;;;;1.72;100.00;103177.22;5109785;28;20012;-76
2022/01/21 08:23:22;;;;;;;5.20;1.33;;;;;;;1.83;100.00;103171.78;5109025;28;20538;-76
2022/01/21 08:25:47;;;;;;;5.40;1.85;;;;;;;1.75;100.00;103132.03;5090486;28;20115;-76
2022/01/21 08:28:13;;;;;;;9.57;1.70;;;;;;;1.90;100.00;103133.44;5092717;28;20457;-76
2022/01/21 08:30:39;;;;;;;14.82;2.53;;;;;;;2.11;100.00;103147.66;5047687;28;20015;-76
2022/01/21 08:33:05;;;;;;;11.02;1.70;;;;;;;2.22;100.00;103169.94;5071663;28;20023;-76
2022/01/21 08:35:31;;;;;;;15.10;2.22;;;;;;;2.24;100.00;103173.38;5086472;28;20038;-76
2022/01/21 08:37:56;;;;;;;12.63;1.33;;;;;;;2.32;100.00;103167.09;5109213;28;20019;-76
2022/01/21 08:40:23;;;;;;;19.00;2.05;;;;;;;2.40;100.00;103163.41;5106091;28;20058;-76
2022/01/21 08:42:49;;;;;;;23.38;2.33;;;;;;;2.54;100.00;103164.78;5085733;28;20028;-76
2022/01/21 08:45:15;;;;;;;7.82;0.93;;;;;;;2.61;100.00;103175.00;5108507;28;20028;-76
2022/01/21 08:47:42;;;;;;;11.68;2.33;;;;;;;2.65;100.00;103176.63;5113157;28;20031;-76
2022/01/21 08:50:10;;;;;;;10.50;1.73;;;;;;;2.47;100.00;103166.69;5108190;28;20015;-76
2022/01/21 08:52:37;;;;;;;8.00;1.98;;;;;;;2.49;100.00;103166.66;5103963;28;20043;-76
2022/01/21 08:55:07;;;;;;;9.88;2.33;;;;;;;2.62;100.00;103186.28;5074291;28;20048;-76
2022/01/21 08:57:34;;;;;;;8.45;1.40;;;;;;;2.54;100.00;103175.22;5107136;28;20071;-76
2022/01/21 09:00:00;;;;;;;5.55;1.40;;;;;;;2.56;100.00;103176.88;5102885;28;20030;-76
2022/01/21 09:02:25;;;;;;;11.95;2.08;;;;;;;2.64;100.00;103192.31;5074618;28;20452;-76
2022/01/21 09:04:51;;;;;;;7.55;1.90;;;;;;;2.45;100.00;103153.69;5106796;28;20085;-76
2022/01/21 09:07:16;;;;;;;11.98;1.80;;;;;;;2.65;100.00;103183.59;5072393;28;20061;-76
2022/01/21 09:09:42;;;;;;;11.32;2.38;;;;;;;2.71;100.00;103177.38;5106106;28;20055;-76
2022/01/21 09:12:07;;;;;;;14.23;1.60;;;;;;;2.59;100.00;103149.84;5088599;28;20035;-76
2022/01/21 09:14:33;;;;;;;7.03;1.33;;;;;;;2.57;100.00;103141.22;5091490;28;20047;-76
2022/01/21 09:16:59;;;;;;;7.00;1.30;;;;;;;2.84;100.00;103176.97;5071987;28;20032;-76
2022/01/21 09:19:26;;;;;;;12.60;2.45;;;;;;;2.78;100.00;103156.28;5110280;28;20463;-76
2022/01/21 09:21:52;;;;;;;13.10;2.15;;;;;;;3.02;100.00;103174.75;5092044;28;20023;-76
2022/01/21 09:24:19;;;;;;;9.52;1.52;;;;;;;3.01;100.00;103163.47;5112908;28;20110;-76
2022/01/21 09:26:44;;;;;;;14.73;1.40;;;;;;;3.15;100.00;103176.09;5110841;28;20379;-76
2022/01/21 09:29:10;;;;;;;11.10;1.90;;;;;;;3.12;100.00;103164.91;5106757;28;20095;-77
2022/01/21 09:31:36;;;;;;;9.25;1.60;;;;;;;3.25;100.00;103182.78;5107435;28;20054;-76
2022/01/21 09:34:03;;;;;;;10.93;2.00;;;;;;;3.29;100.00;103181.78;5095057;28;20034;-76
2022/01/21 09:36:29;;;;;;;5.95;1.30;;;;;;;3.35;100.00;103175.50;5091964;28;20027;-76
2022/01/21 09:38:54;;;;;;;7.55;1.90;;;;;;;3.42;100.00;103176.19;5091910;28;20394;-76
2022/01/21 09:41:21;;;;;;;10.50;1.65;;;;;;;3.43;100.00;103180.50;5109578;28;20039;-76
2022/01/21 09:43:50;;;;;;;8.00;1.55;;;;;;;3.45;100.00;103168.28;5113029;28;20390;-76
2022/01/21 09:46:16;;;;;;;6.07;1.85;;;;;;;3.49;100.00;103164.66;5108768;28;20028;-76
2022/01/21 09:48:52;;;;;;;5.68;1.55;;;;;;;3.59;100.00;103162.63;5085318;28;20553;-76
2022/01/21 09:51:17;;;;;;;8.80;0.90;;;;;;;3.69;100.00;103161.44;5090156;28;20122;-76
2022/01/21 09:53:43;;;;;;;2.92;1.02;;;;;;;3.64;100.00;103148.53;5101840;28;21350;-73
2022/01/21 09:56:09;;;;;;;8.63;1.30;;;;;;;3.76;100.00;103167.31;5114273;28;20055;-75
2022/01/21 09:58:34;;;;;;;9.50;1.20;;;;;;;3.67;100.00;103148.41;5092858;28;20034;-75
2022/01/21 10:01:07;;;;;;;3.15;1.27;;;;;;;3.77;100.00;103151.59;5108274;28;20035;-76
2022/01/21 10:03:34;;;;;;;9.50;1.73;;;;;;;3.89;100.00;103168.63;5112907;28;20058;-76
2022/01/21 10:06:01;;;;;;;11.25;1.35;;;;;;;3.80;100.00;103153.25;5072180;28;20501;-76
2022/01/21 10:08:28;;;;;;;15.10;1.35;;;;;;;3.95;100.00;103163.22;5090607;28;21113;-76
2022/01/21 10:10:54;;;;;;;5.78;1.63;;;;;;;4.12;100.00;103175.72;5095015;28;20373;-76
2022/01/21 10:13:20;;;;;;;8.07;1.20;;;;;;;4.24;100.00;103170.06;5112951;28;20022;-76
2022/01/21 10:15:47;;;;;;;8.52;1.55;;;;;;;4.33;100.00;103168.91;5094519;28;20031;-76
2022/01/21 10:18:18;;;;;;;8.55;1.05;;;;;;;4.49;100.00;103180.56;5093611;28;20436;-76
2022/01/21 10:21:04;;;;;;;6.38;0.95;;;;;;;4.63;100.00;103177.44;5112918;28;20702;-75
2022/01/21 10:23:33;;;;;;;4.95;1.35;;;;;;;4.74;100.00;103174.44;5112953;28;20027;-75
2022/01/21 10:26:05;;;;;;;10.15;1.88;;;;;;;4.82;100.00;103161.97;5114896;28;20132;-75
2022/01/21 10:28:32;;;;;;;3.83;0.70;;;;;;;5.09;100.00;103180.16;5104777;28;20592;-75
2022/01/21 10:31:09;;;;;;;8.27;1.10;;;;;;;5.07;100.00;103185.44;5090391;28;20031;-76
2022/01/21 10:33:53;;;;;;;8.68;1.90;;;;;;;5.06;100.00;103183.75;5108407;28;20023;-76
2022/01/21 10:36:27;;;;;;;4.88;0.98;;;;;;;5.10;100.00;103187.13;5090515;28;20019;-76
2022/01/21 10:39:07;;;;;;;4.57;0.75;;;;;;;4.97;100.00;103172.78;5113097;28;20028;-76
2022/01/21 10:41:34;;;;;;;6.32;1.13;;;;;;;5.05;100.00;103197.78;5089667;28;20028;-76
2022/01/21 10:44:12;;;;;;;7.25;1.05;;;;;;;5.07;100.00;103187.22;5107666;28;20034;-76
2022/01/21 10:46:39;;;;;;;11.02;1.77;;;;;;;4.84;100.00;103141.81;5111497;28;20020;-76
2022/01/21 10:49:10;;;;;;;4.80;0.60;;;;;;;5.22;100.00;103170.94;5111610;28;20015;-77
2022/01/21 10:51:37;;;;;;;;;;;;;;;5.51;100.00;103182.94;5091875;28;20534;-76
2022/01/21 10:54:21;;;;;;;9.02;1.35;;;;;;;5.58;100.00;103186.16;5111512;28;20343;-76
2022/01/21 10:57:07;;;;;;;10.68;1.20;;;;;;;5.69;100.00;103186.59;5103637;28;20020;-76
2022/01/21 10:59:53;;;;;;;8.65;2.28;;;;;;;5.73;100.00;103184.72;5105584;28;20055;-76
2022/01/21 11:02:36;;;;;;;13.65;1.77;;;;;;;5.77;100.00;103174.03;5088609;28;20368;-76
2022/01/21 11:05:13;;;;;;;15.10;2.70;;;;;;;5.80;100.00;103177.47;5087083;28;20115;-75
2022/01/21 11:07:51;;;;;;;4.85;1.30;;;;;;;5.81;100.00;103182.63;5090910;28;20079;-76
2022/01/21 11:10:32;;;;;;;10.52;2.47;;;;;;;5.78;100.00;103178.34;5111523;28;20067;-76
2022/01/21 11:13:02;;;;;;;10.05;1.95;;;;;;;5.77;100.00;103178.44;5109291;27;20024;-76
2022/01/21 11:15:45;;;;;;;10.02;1.60;;;;;;;5.66;100.00;103165.75;5107666;28;20038;-76
2022/01/21 11:18:14;;;;;;;12.40;1.60;;;;;;;5.69;100.00;103170.88;5075934;28;20035;-76
2022/01/21 11:20:42;;;;;;;9.00;1.30;;;;;;;5.67;100.00;103180.56;5088762;28;20028;-76
2022/01/21 11:23:09;;;;;;;14.10;2.03;;;;;;;5.66;100.00;103176.25;5090413;28;20027;-75
2022/01/21 11:25:43;;;;;;;4.65;1.45;;;;;;;5.75;100.00;103170.63;5087880;28;20023;-75
2022/01/21 11:28:19;;;;;;;5.95;0.75;;;;;;;5.77;100.00;103144.38;5097224;28;20024;-75
2022/01/21 11:30:46;;;;;;;3.85;1.65;;;;;;;5.91;100.00;103164.75;5110618;28;20031;-75
2022/01/21 11:33:12;;;;;;;10.60;1.83;;;;;;;5.74;100.00;103126.13;5106156;28;20024;-75
2022/01/21 11:35:38;;;;;;;15.80;1.88;;;;;;;5.98;100.00;103163.63;5078990;28;20059;-75
2022/01/21 11:38:10;;;;;;;7.10;1.60;;;;;;;6.05;100.00;103153.72;5090190;28;20039;-75
2022/01/21 11:40:36;;;;;;;;;;;;;;;6.13;100.00;103154.28;5104148;28;20028;-75
2022/01/21 11:43:04;;;;;;;6.25;1.35;;;;;;;6.14;100.00;103130.63;5109236;27;19911;-75
2022/01/21 11:50:52;;;;;;;9.93;1.30;;;;;;;6.45;100.00;103152.06;5077707;28;20032;-76
2022/01/21 11:53:50;;;;;;;6.82;2.03;;;;;;;6.51;100.00;103147.41;5104589;27;20044;-75
2022/01/21 11:56:38;;;;;;;14.95;1.63;;;;;;;6.44;100.00;103142.47;5103355;28;20039;-75
2022/01/21 12:01:52;;;;;;;10.93;1.25;;;;;;;6.42;100.00;103129.41;5105834;28;20035;-76
2022/01/21 12:04:29;;;;;;;10.77;1.67;;;;;;;6.51;100.00;103136.03;5079215;28;20065;-77
2022/01/21 12:06:55;;;;;;;5.63;1.77;;;;;;;6.47;100.00;103116.97;5103640;28;20031;-75
2022/01/21 12:09:57;;;;;;;7.13;1.38;;;;;;;6.59;100.00;103132.16;5068788;28;20036;-75
2022/01/21 12:12:24;;;;;;;4.70;1.30;;;;;;;6.54;100.00;103107.91;5093575;27;20023;-75
2022/01/21 12:14:57;;;;;;;4.93;1.00;;;;;;;6.67;100.00;103133.59;5080953;28;20092;-75
2022/01/21 12:17:50;;;;;;;4.05;0.80;;;;;;;6.63;100.00;103121.53;5080662;28;20572;-76
2022/01/21 12:20:15;;;;;;;11.18;1.88;;;;;;;6.75;100.00;103126.22;5084368;28;20028;-76
2022/01/21 12:22:41;;;;;;;4.68;0.95;;;;;;;6.65;100.00;103136.28;5097426;28;20027;-76
2022/01/21 12:25:12;;;;;;;6.15;1.08;;;;;;;6.66;100.00;103126.63;5079774;28;20394;-76
2022/01/21 12:27:38;;;;;;;;;;;;;;;6.67;100.00;103128.34;5100737;28;20346;-76